sensor_id;sensor_type;location;lat;lon;timestamp;P1;durP1;ratioP1;P2;durP2;ratioP2
67164;SDS011;54093;50.014;19.984;2023-05-23T00:03:26;5.53;;;5.13;;
67164;SDS011;54093;50.014;19.984;2023-05-23T00:12:48;5.32;;;4.80;;
67164;SDS011;54093;50.014;19.984;2023-05-23T00:22:08;5.55;;;5.00;;
67164;SDS011;54093;50.014;19.984;2023-05-23T00:31:30;5.03;;;4.45;;
67164;SDS011;54093;50.014;19.984;2023-05-23T00:40:51;5.97;;;5.57;;
67164;SDS011;54093;50.014;19.984;2023-05-23T00:50:12;5.43;;;4.93;;
67164;SDS011;54093;50.014;19.984;2023-05-23T00:59:36;6.72;;;5.20;;
67164;SDS011;54093;50.014;19.984;2023-05-23T01:08:57;6.75;;;4.82;;
67164;SDS011;54093;50.014;19.984;2023-05-23T01:18:23;9.75;;;5.07;;
67164;SDS011;54093;50.014;19.984;2023-05-23T01:27:59;6.05;;;5.32;;
67164;SDS011;54093;50.014;19.984;2023-05-23T01:37:22;10.77;;;5.43;;
67164;SDS011;54093;50.014;19.984;2023-05-23T01:46:43;5.40;;;4.88;;
67164;SDS011;54093;50.014;19.984;2023-05-23T01:56:06;5.40;;;4.50;;
67164;SDS011;54093;50.014;19.984;2023-05-23T02:05:27;5.60;;;5.03;;
67164;SDS011;54093;50.014;19.984;2023-05-23T02:14:48;4.80;;;4.50;;
67164;SDS011;54093;50.014;19.984;2023-05-23T02:24:11;4.53;;;4.22;;
67164;SDS011;54093;50.014;19.984;2023-05-23T02:33:32;5.07;;;4.55;;
67164;SDS011;54093;50.014;19.984;2023-05-23T02:42:53;9.02;;;5.22;;
67164;SDS011;54093;50.014;19.984;2023-05-23T02:52:16;4.72;;;4.32;;
67164;SDS011;54093;50.014;19.984;2023-05-23T03:01:37;5.47;;;5.05;;
67164;SDS011;54093;50.014;19.984;2023-05-23T03:10:58;4.93;;;4.53;;
67164;SDS011;54093;50.014;19.984;2023-05-23T03:20:19;8.30;;;4.93;;
67164;SDS011;54093;50.014;19.984;2023-05-23T03:29:40;8.93;;;4.80;;
67164;SDS011;54093;50.014;19.984;2023-05-23T03:39:01;8.55;;;5.10;;
67164;SDS011;54093;50.014;19.984;2023-05-23T03:48:22;6.72;;;5.93;;
67164;SDS011;54093;50.014;19.984;2023-05-23T03:57:42;6.13;;;5.60;;
67164;SDS011;54093;50.014;19.984;2023-05-23T04:07:04;5.25;;;4.78;;
67164;SDS011;54093;50.014;19.984;2023-05-23T04:16:25;10.52;;;6.13;;
67164;SDS011;54093;50.014;19.984;2023-05-23T04:25:46;5.05;;;4.53;;
67164;SDS011;54093;50.014;19.984;2023-05-23T04:35:07;6.00;;;5.40;;
67164;SDS011;54093;50.014;19.984;2023-05-23T04:44:28;7.25;;;4.70;;
67164;SDS011;54093;50.014;19.984;2023-05-23T04:53:50;11.98;;;5.80;;
67164;SDS011;54093;50.014;19.984;2023-05-23T05:03:11;6.80;;;5.55;;
67164;SDS011;54093;50.014;19.984;2023-05-23T05:12:32;5.57;;;5.07;;
67164;SDS011;54093;50.014;19.984;2023-05-23T05:21:54;5.47;;;4.95;;
67164;SDS011;54093;50.014;19.984;2023-05-23T05:31:14;8.10;;;5.07;;
67164;SDS011;54093;50.014;19.984;2023-05-23T05:40:35;5.57;;;5.07;;
67164;SDS011;54093;50.014;19.984;2023-05-23T05:49:56;6.95;;;5.85;;
67164;SDS011;54093;50.014;19.984;2023-05-23T05:59:17;9.80;;;6.07;;
67164;SDS011;54093;50.014;19.984;2023-05-23T06:08:38;6.18;;;5.68;;
67164;SDS011;54093;50.014;19.984;2023-05-23T06:17:59;7.68;;;6.63;;
67164;SDS011;54093;50.014;19.984;2023-05-23T06:27:20;6.25;;;5.65;;
67164;SDS011;54093;50.014;19.984;2023-05-23T06:36:40;13.02;;;5.97;;
67164;SDS011;54093;50.014;19.984;2023-05-23T06:46:02;10.00;;;5.80;;
67164;SDS011;54093;50.014;19.984;2023-05-23T06:55:23;9.00;;;4.82;;
67164;SDS011;54093;50.014;19.984;2023-05-23T07:04:44;7.70;;;4.30;;
67164;SDS011;54093;50.014;19.984;2023-05-23T07:14:05;6.65;;;4.40;;
67164;SDS011;54093;50.014;19.984;2023-05-23T07:23:27;6.07;;;4.22;;
67164;SDS011;54093;50.014;19.984;2023-05-23T07:32:52;5.38;;;4.03;;
67164;SDS011;54093;50.014;19.984;2023-05-23T07:42:13;4.15;;;3.85;;
67164;SDS011;54093;50.014;19.984;2023-05-23T07:51:34;5.28;;;4.35;;
67164;SDS011;54093;50.014;19.984;2023-05-23T08:00:55;11.95;;;4.45;;
67164;SDS011;54093;50.014;19.984;2023-05-23T08:10:17;6.90;;;4.75;;
67164;SDS011;54093;50.014;19.984;2023-05-23T08:19:38;5.30;;;4.22;;
67164;SDS011;54093;50.014;19.984;2023-05-23T08:29:02;13.70;;;4.38;;
67164;SDS011;54093;50.014;19.984;2023-05-23T08:38:23;5.65;;;4.05;;
67164;SDS011;54093;50.014;19.984;2023-05-23T08:47:44;13.10;;;4.05;;
67164;SDS011;54093;50.014;19.984;2023-05-23T08:57:06;9.27;;;4.53;;
67164;SDS011;54093;50.014;19.984;2023-05-23T09:06:27;7.35;;;4.55;;
67164;SDS011;54093;50.014;19.984;2023-05-23T09:16:04;6.93;;;4.38;;
67164;SDS011;54093;50.014;19.984;2023-05-23T09:25:26;10.20;;;4.38;;
67164;SDS011;54093;50.014;19.984;2023-05-23T09:34:57;8.40;;;3.63;;
67164;SDS011;54093;50.014;19.984;2023-05-23T09:44:21;5.53;;;2.92;;
67164;SDS011;54093;50.014;19.984;2023-05-23T09:53:43;5.13;;;3.10;;
67164;SDS011;54093;50.014;19.984;2023-05-23T10:03:07;3.85;;;3.55;;
67164;SDS011;54093;50.014;19.984;2023-05-23T10:22:07;5.63;;;3.13;;
67164;SDS011;54093;50.014;19.984;2023-05-23T10:31:29;6.10;;;3.78;;
67164;SDS011;54093;50.014;19.984;2023-05-23T10:41:04;3.72;;;3.42;;
67164;SDS011;54093;50.014;19.984;2023-05-23T10:59:52;3.57;;;2.67;;
67164;SDS011;54093;50.014;19.984;2023-05-23T11:09:15;3.05;;;2.75;;
67164;SDS011;54093;50.014;19.984;2023-05-23T11:18:38;3.47;;;2.95;;
67164;SDS011;54093;50.014;19.984;2023-05-23T11:27:59;5.13;;;3.15;;
67164;SDS011;54093;50.014;19.984;2023-05-23T11:37:24;4.10;;;2.95;;
67164;SDS011;54093;50.014;19.984;2023-05-23T11:46:57;6.82;;;3.00;;
67164;SDS011;54093;50.014;19.984;2023-05-23T11:56:21;5.22;;;2.65;;
67164;SDS011;54093;50.014;19.984;2023-05-23T12:05:43;5.13;;;3.08;;
67164;SDS011;54093;50.014;19.984;2023-05-23T12:15:06;4.25;;;3.28;;
67164;SDS011;54093;50.014;19.984;2023-05-23T12:24:27;3.97;;;2.47;;
67164;SDS011;54093;50.014;19.984;2023-05-23T12:33:51;4.00;;;3.60;;
67164;SDS011;54093;50.014;19.984;2023-05-23T12:43:14;5.47;;;2.88;;
67164;SDS011;54093;50.014;19.984;2023-05-23T12:52:35;6.10;;;3.10;;
67164;SDS011;54093;50.014;19.984;2023-05-23T13:01:56;5.90;;;3.25;;
67164;SDS011;54093;50.014;19.984;2023-05-23T13:11:17;4.45;;;3.20;;
67164;SDS011;54093;50.014;19.984;2023-05-23T13:20:38;3.17;;;2.90;;
67164;SDS011;54093;50.014;19.984;2023-05-23T13:29:59;4.03;;;2.95;;
67164;SDS011;54093;50.014;19.984;2023-05-23T13:39:20;4.63;;;3.80;;
67164;SDS011;54093;50.014;19.984;2023-05-23T13:48:42;6.22;;;3.03;;
67164;SDS011;54093;50.014;19.984;2023-05-23T13:58:03;5.05;;;2.92;;
67164;SDS011;54093;50.014;19.984;2023-05-23T14:07:24;6.03;;;2.90;;
67164;SDS011;54093;50.014;19.984;2023-05-23T14:16:45;3.72;;;3.00;;
67164;SDS011;54093;50.014;19.984;2023-05-23T14:26:06;4.47;;;2.47;;
67164;SDS011;54093;50.014;19.984;2023-05-23T14:35:27;4.95;;;3.17;;
67164;SDS011;54093;50.014;19.984;2023-05-23T14:44:49;15.65;;;3.80;;
67164;SDS011;54093;50.014;19.984;2023-05-23T14:54:09;6.30;;;4.22;;
67164;SDS011;54093;50.014;19.984;2023-05-23T15:03:30;12.48;;;4.57;;
67164;SDS011;54093;50.014;19.984;2023-05-23T15:12:52;8.27;;;5.50;;
67164;SDS011;54093;50.014;19.984;2023-05-23T15:22:13;4.65;;;4.13;;
67164;SDS011;54093;50.014;19.984;2023-05-23T15:31:34;6.35;;;4.10;;
67164;SDS011;54093;50.014;19.984;2023-05-23T15:40:55;4.07;;;3.78;;
67164;SDS011;54093;50.014;19.984;2023-05-23T15:50:18;6.20;;;4.63;;
67164;SDS011;54093;50.014;19.984;2023-05-23T15:59:39;6.45;;;5.95;;
67164;SDS011;54093;50.014;19.984;2023-05-23T16:09:00;5.38;;;5.03;;
67164;SDS011;54093;50.014;19.984;2023-05-23T16:18:21;9.82;;;3.60;;
67164;SDS011;54093;50.014;19.984;2023-05-23T16:27:42;4.43;;;3.50;;
67164;SDS011;54093;50.014;19.984;2023-05-23T16:37:03;3.78;;;3.47;;
67164;SDS011;54093;50.014;19.984;2023-05-23T16:46:24;4.45;;;3.78;;
67164;SDS011;54093;50.014;19.984;2023-05-23T16:55:45;6.57;;;4.85;;
67164;SDS011;54093;50.014;19.984;2023-05-23T17:05:06;6.65;;;4.22;;
67164;SDS011;54093;50.014;19.984;2023-05-23T17:14:28;3.92;;;3.50;;
67164;SDS011;54093;50.014;19.984;2023-05-23T17:23:49;3.83;;;3.42;;
67164;SDS011;54093;50.014;19.984;2023-05-23T17:33:11;5.95;;;4.43;;
67164;SDS011;54093;50.014;19.984;2023-05-23T17:42:32;5.70;;;3.70;;
67164;SDS011;54093;50.014;19.984;2023-05-23T17:51:52;3.72;;;3.30;;
67164;SDS011;54093;50.014;19.984;2023-05-23T18:01:14;5.53;;;3.22;;
67164;SDS011;54093;50.014;19.984;2023-05-23T18:10:36;3.88;;;3.38;;
67164;SDS011;54093;50.014;19.984;2023-05-23T18:19:58;4.45;;;3.33;;
67164;SDS011;54093;50.014;19.984;2023-05-23T18:29:19;3.75;;;3.53;;
67164;SDS011;54093;50.014;19.984;2023-05-23T18:38:41;4.10;;;3.80;;
67164;SDS011;54093;50.014;19.984;2023-05-23T18:48:02;5.60;;;4.35;;
67164;SDS011;54093;50.014;19.984;2023-05-23T18:57:24;4.57;;;4.28;;
67164;SDS011;54093;50.014;19.984;2023-05-23T19:06:46;4.72;;;4.32;;
67164;SDS011;54093;50.014;19.984;2023-05-23T19:16:07;7.80;;;4.07;;
67164;SDS011;54093;50.014;19.984;2023-05-23T19:25:28;4.03;;;3.75;;
67164;SDS011;54093;50.014;19.984;2023-05-23T19:34:50;4.80;;;4.13;;
67164;SDS011;54093;50.014;19.984;2023-05-23T19:44:12;5.75;;;4.15;;
67164;SDS011;54093;50.014;19.984;2023-05-23T19:53:33;4.10;;;3.80;;
67164;SDS011;54093;50.014;19.984;2023-05-23T20:02:54;4.47;;;4.20;;
67164;SDS011;54093;50.014;19.984;2023-05-23T20:12:17;8.35;;;4.80;;
67164;SDS011;54093;50.014;19.984;2023-05-23T20:21:38;5.57;;;5.18;;
67164;SDS011;54093;50.014;19.984;2023-05-23T20:30:59;6.47;;;5.78;;
67164;SDS011;54093;50.014;19.984;2023-05-23T20:40:21;12.15;;;6.32;;
67164;SDS011;54093;50.014;19.984;2023-05-23T20:49:42;9.13;;;6.53;;
67164;SDS011;54093;50.014;19.984;2023-05-23T20:59:03;9.20;;;6.90;;
67164;SDS011;54093;50.014;19.984;2023-05-23T21:08:24;7.82;;;7.05;;
67164;SDS011;54093;50.014;19.984;2023-05-23T21:17:48;9.38;;;8.60;;
67164;SDS011;54093;50.014;19.984;2023-05-23T21:27:10;10.90;;;9.13;;
67164;SDS011;54093;50.014;19.984;2023-05-23T21:36:31;12.93;;;11.38;;
67164;SDS011;54093;50.014;19.984;2023-05-23T21:45:53;7.78;;;6.95;;
67164;SDS011;54093;50.014;19.984;2023-05-23T21:55:14;7.82;;;6.45;;
67164;SDS011;54093;50.014;19.984;2023-05-23T22:04:35;6.88;;;6.38;;
67164;SDS011;54093;50.014;19.984;2023-05-23T22:13:56;8.57;;;7.50;;
67164;SDS011;54093;50.014;19.984;2023-05-23T22:23:17;9.13;;;8.10;;
67164;SDS011;54093;50.014;19.984;2023-05-23T22:32:38;11.63;;;7.55;;
67164;SDS011;54093;50.014;19.984;2023-05-23T22:41:59;11.55;;;7.38;;
67164;SDS011;54093;50.014;19.984;2023-05-23T22:51:20;8.30;;;7.20;;
67164;SDS011;54093;50.014;19.984;2023-05-23T23:00:41;12.32;;;11.27;;
67164;SDS011;54093;50.014;19.984;2023-05-23T23:10:05;9.18;;;8.23;;
67164;SDS011;54093;50.014;19.984;2023-05-23T23:19:27;11.35;;;9.45;;
67164;SDS011;54093;50.014;19.984;2023-05-23T23:28:49;11.70;;;10.65;;
67164;SDS011;54093;50.014;19.984;2023-05-23T23:38:10;11.82;;;8.20;;
67164;SDS011;54093;50.014;19.984;2023-05-23T23:47:30;7.82;;;7.18;;
67164;SDS011;54093;50.014;19.984;2023-05-23T23:56:52;8.25;;;7.32;;
